Time;durP1;ratioP1;P1;durP2;ratioP2;P2;SDS_P1;SDS_P2;PMS_P1;PMS_P2;Temp;Humidity;BMP_temperature;BMP_pressure;BME280_temperature;BME280_humidity;BME280_pressure;Samples;Min_cycle;Max_cycle;Signal;HPM_P1;HPM_P2
2022/09/20 00:00:45;;;;;;;0.50;0.30;;;11.40;86.50;;;;;;4879185;29;20049;-76
2022/09/20 00:03:12;;;;;;;0.45;0.20;;;11.40;86.50;;;;;;4877665;29;20053;-76
2022/09/20 00:05:43;;;;;;;0.47;0.30;;;11.40;86.50;;;;;;4880926;29;20492;-76
2022/09/20 00:08:12;;;;;;;0.10;0.10;;;11.40;86.60;;;;;;4859406;29;20041;-75
2022/09/20 00:10:41;;;;;;;0.10;0.10;;;11.40;86.60;;;;;;4858029;29;20092;-76
2022/09/20 00:13:10;;;;;;;0.65;0.20;;;11.30;86.70;;;;;;4867708;29;20055;-78
2022/09/20 00:15:45;;;;;;;0.90;0.30;;;11.50;86.80;;;;;;4858556;29;20421;-76
2022/09/20 00:18:12;;;;;;;0.50;0.20;;;11.40;86.80;;;;;;4857942;29;20050;-75
2022/09/20 00:20:49;;;;;;;1.13;0.20;;;11.50;86.90;;;;;;4859475;29;20057;-75
2022/09/20 00:23:16;;;;;;;0.17;0.15;;;11.40;86.90;;;;;;4860068;29;20517;-76
2022/09/20 00:25:43;;;;;;;0.60;0.20;;;11.40;86.80;;;;;;4857643;29;20097;-75
2022/09/20 00:28:10;;;;;;;0.30;0.20;;;11.50;86.90;;;;;;4857563;29;20546;-76
2022/09/20 00:30:37;;;;;;;0.45;0.30;;;11.40;86.90;;;;;;4857891;29;20053;-76
2022/09/20 00:33:02;;;;;;;0.20;0.20;;;11.50;86.90;;;;;;4857718;29;20046;-75
2022/09/20 00:35:29;;;;;;;0.20;0.20;;;11.50;86.90;;;;;;4859132;29;20052;-75
2022/09/20 00:37:56;;;;;;;0.32;0.20;;;11.50;86.90;;;;;;4858137;29;20042;-75
2022/09/20 00:40:26;;;;;;;0.20;0.20;;;11.40;86.80;;;;;;4876384;29;20029;-76
2022/09/20 00:42:52;;;;;;;0.32;0.10;;;11.50;86.80;;;;;;4878778;29;20049;-75
2022/09/20 00:45:25;;;;;;;0.20;0.20;;;11.50;86.80;;;;;;4877654;29;20048;-74
2022/09/20 00:48:00;;;;;;;0.30;0.30;;;11.50;86.90;;;;;;4877795;29;20420;-75
2022/09/20 00:50:33;;;;;;;0.20;0.20;;;11.50;86.90;;;;;;4878324;29;20053;-74
2022/09/20 00:53:08;;;;;;;0.28;0.20;;;11.40;86.90;;;;;;4875477;29;20503;-74
2022/09/20 00:55:37;;;;;;;0.20;0.20;;;11.50;87.10;;;;;;4876106;29;20124;-73
2022/09/20 00:58:04;;;;;;;0.25;0.25;;;11.40;87.10;;;;;;4860010;29;20045;-73
2022/09/20 01:00:31;;;;;;;0.10;0.10;;;11.40;87.10;;;;;;4877896;29;20037;-73
2022/09/20 01:03:02;;;;;;;0.25;0.20;;;11.40;87.20;;;;;;4855937;29;20116;-73
2022/09/20 01:05:27;;;;;;;0.30;0.10;;;11.40;87.20;;;;;;4876855;29;20053;-73
2022/09/20 01:07:54;;;;;;;0.15;0.10;;;11.30;87.20;;;;;;4860954;29;20045;-74
2022/09/20 01:10:20;;;;;;;0.20;0.20;;;11.40;87.20;;;;;;4861051;29;20096;-74
2022/09/20 01:12:47;;;;;;;0.22;0.10;;;11.40;87.20;;;;;;4876555;29;20441;-73
2022/09/20 01:15:14;;;;;;;0.20;0.20;;;11.40;87.10;;;;;;4876438;29;20080;-74
2022/09/20 01:17:46;;;;;;;0.40;0.20;;;11.40;87.10;;;;;;4877346;29;20041;-74
2022/09/20 01:20:24;;;;;;;0.20;0.20;;;11.50;87.20;;;;;;4877359;29;20530;-74
2022/09/20 01:23:20;;;;;;;0.60;0.10;;;11.40;87.10;;;;;;4876461;29;20034;-74
2022/09/20 01:26:10;;;;;;;0.20;0.20;;;11.40;87.20;;;;;;4877483;29;20392;-74
2022/09/20 01:28:38;;;;;;;0.20;0.20;;;11.40;87.20;;;;;;4861054;29;20045;-74
2022/09/20 01:31:13;;;;;;;0.10;0.10;;;11.40;87.20;;;;;;4877093;29;20048;-74
2022/09/20 01:33:46;;;;;;;0.10;0.10;;;11.30;87.20;;;;;;4877358;29;20097;-74
2022/09/20 01:36:24;;;;;;;0.35;0.20;;;11.40;87.30;;;;;;4877341;29;20069;-74
2022/09/20 01:39:04;;;;;;;0.20;0.20;;;11.30;87.30;;;;;;4875902;29;20041;-74
2022/09/20 01:41:37;;;;;;;0.20;0.10;;;11.30;87.30;;;;;;4876061;29;20049;-74
2022/09/20 01:44:13;;;;;;;0.13;0.13;;;11.30;87.30;;;;;;4876234;29;20099;-74
2022/09/20 01:46:42;;;;;;;0.10;0.10;;;11.50;87.40;;;;;;4875758;29;20396;-74
2022/09/20 01:49:42;;;;;;;0.38;0.10;;;11.40;87.30;;;;;;4875465;29;20048;-74
2022/09/20 01:52:41;;;;;;;0.38;0.13;;;11.40;87.40;;;;;;4876195;29;20036;-74
2022/09/20 01:55:38;;;;;;;0.20;0.20;;;11.40;87.40;;;;;;4876812;29;20205;-74
2022/09/20 01:58:42;;;;;;;0.10;0.10;;;11.30;87.30;;;;;;4876042;29;20097;-74
2022/09/20 02:01:38;;;;;;;0.10;0.10;;;11.30;87.40;;;;;;4875880;29;20053;-74
2022/09/20 02:04:32;;;;;;;0.13;0.10;;;11.30;87.40;;;;;;4876798;29;20045;-74
2022/09/20 02:07:37;;;;;;;0.10;0.10;;;11.30;87.40;;;;;;4877491;29;20068;-74
2022/09/20 02:10:34;;;;;;;0.73;0.13;;;11.30;87.40;;;;;;4866044;29;20053;-74
2022/09/20 02:13:19;;;;;;;0.20;0.20;;;11.30;87.40;;;;;;4847688;29;20488;-74
2022/09/20 02:16:04;;;;;;;0.17;0.10;;;11.20;87.40;;;;;;4879945;29;20041;-74
2022/09/20 02:18:53;;;;;;;0.28;0.20;;;11.30;87.40;;;;;;4879276;29;20123;-74
2022/09/20 02:21:31;;;;;;;0.20;0.20;;;11.30;87.50;;;;;;4878837;29;20030;-74
2022/09/20 02:24:11;;;;;;;0.20;0.20;;;11.30;87.50;;;;;;4880074;29;20124;-74
2022/09/20 02:27:14;;;;;;;0.10;0.10;;;11.30;87.40;;;;;;4877305;29;20041;-74
2022/09/20 02:30:16;;;;;;;0.15;0.15;;;11.40;87.50;;;;;;4879721;29;20064;-74
2022/09/20 02:33:04;;;;;;;0.10;0.10;;;11.30;87.50;;;;;;4878453;29;20056;-74
2022/09/20 02:35:49;;;;;;;0.65;0.20;;;11.30;87.50;;;;;;4878294;29;20464;-74
2022/09/20 02:38:35;;;;;;;0.30;0.22;;;11.30;87.50;;;;;;4878866;29;20053;-74
2022/09/20 02:41:29;;;;;;;0.25;0.10;;;11.30;87.40;;;;;;4878420;29;20049;-74
2022/09/20 02:44:02;;;;;;;0.55;0.30;;;11.30;87.40;;;;;;4876379;29;20049;-74
2022/09/20 02:46:40;;;;;;;0.10;0.10;;;11.30;87.40;;;;;;4878598;29;20061;-74
2022/09/20 02:49:27;;;;;;;0.10;0.10;;;11.30;87.40;;;;;;4879373;29;20041;-74
2022/09/20 02:51:59;;;;;;;0.70;0.30;;;11.30;87.40;;;;;;4880136;29;20472;-74
2022/09/20 02:54:58;;;;;;;0.25;0.10;;;11.40;87.50;;;;;;4880074;29;20041;-74
2022/09/20 02:57:45;;;;;;;0.20;0.20;;;11.30;87.40;;;;;;4878290;29;20049;-74
2022/09/20 03:00:19;;;;;;;0.15;0.15;;;11.40;87.50;;;;;;4862808;29;20080;-74
2022/09/20 03:03:07;;;;;;;0.68;0.20;;;11.40;87.40;;;;;;4878193;29;20417;-74
2022/09/20 03:05:50;;;;;;;0.20;0.20;;;11.40;87.40;;;;;;4879563;29;20858;-74
2022/09/20 03:08:36;;;;;;;0.30;0.20;;;11.40;87.40;;;;;;4878000;29;20044;-74
2022/09/20 03:11:17;;;;;;;0.10;0.10;;;11.40;87.40;;;;;;4877941;29;20052;-74
2022/09/20 03:14:22;;;;;;;0.40;0.20;;;11.60;87.50;;;;;;4878426;29;20089;-74
2022/09/20 03:17:15;;;;;;;0.15;0.15;;;11.40;87.50;;;;;;4878970;29;20096;-75
2022/09/20 03:19:58;;;;;;;0.50;0.20;;;11.40;87.40;;;;;;4873091;29;20045;-74
2022/09/20 03:22:49;;;;;;;0.10;0.10;;;11.40;87.50;;;;;;4878976;29;20045;-74
2022/09/20 03:25:35;;;;;;;;;;;11.30;87.50;;;;;;4878273;29;20044;-74
2022/09/20 03:28:28;;;;;;;0.20;0.20;;;11.40;87.50;;;;;;4878426;29;19919;-74
2022/09/20 03:31:23;;;;;;;0.20;0.20;;;11.40;87.50;;;;;;4878230;29;20076;-74
2022/09/20 03:34:21;;;;;;;0.20;0.20;;;11.40;87.50;;;;;;4878998;29;20056;-74
2022/09/20 03:37:08;;;;;;;0.60;0.30;;;11.40;87.50;;;;;;4868415;29;20084;-74
2022/09/20 03:40:11;;;;;;;0.30;0.28;;;11.40;87.60;;;;;;4876951;29;20524;-74
2022/09/20 03:42:47;;;;;;;0.20;0.20;;;11.40;87.60;;;;;;4878829;29;20051;-74
2022/09/20 03:45:32;;;;;;;0.17;0.17;;;11.40;87.60;;;;;;4877884;29;20072;-74
2022/09/20 03:48:17;;;;;;;0.10;0.10;;;11.40;87.70;;;;;;4879289;29;20051;-74
2022/09/20 03:50:50;;;;;;;0.13;0.13;;;11.30;87.60;;;;;;4879261;29;20041;-74
2022/09/20 03:53:44;;;;;;;0.65;0.30;;;11.30;87.70;;;;;;4879224;29;20411;-74
2022/09/20 03:56:42;;;;;;;0.43;0.20;;;11.30;87.70;;;;;;4878635;29;20518;-74
2022/09/20 03:59:32;;;;;;;0.20;0.20;;;11.40;87.80;;;;;;4878687;29;20369;-74
2022/09/20 04:02:22;;;;;;;0.20;0.20;;;11.30;87.80;;;;;;4879008;29;20048;-74
2022/09/20 04:04:57;;;;;;;0.20;0.20;;;11.30;87.80;;;;;;4877873;29;20045;-74
2022/09/20 04:07:51;;;;;;;0.20;0.20;;;11.30;87.80;;;;;;4851286;29;20079;-74
2022/09/20 04:10:45;;;;;;;0.20;0.20;;;11.40;87.90;;;;;;4864724;29;20424;-73
2022/09/20 04:13:35;;;;;;;0.55;0.20;;;11.30;87.80;;;;;;4868062;29;20451;-73
2022/09/20 04:16:12;;;;;;;0.20;0.20;;;11.30;87.90;;;;;;4879334;29;20052;-73
2022/09/20 04:18:57;;;;;;;0.20;0.20;;;11.30;87.80;;;;;;4877569;29;20457;-73
2022/09/20 04:21:54;;;;;;;0.20;0.20;;;11.30;88.00;;;;;;4877346;29;20120;-73
2022/09/20 04:24:44;;;;;;;0.88;0.30;;;11.30;88.10;;;;;;4878620;29;20055;-73
2022/09/20 04:27:30;;;;;;;0.20;0.20;;;11.30;88.10;;;;;;4876527;29;20060;-73
2022/09/20 04:30:04;;;;;;;0.30;0.22;;;11.20;88.10;;;;;;4859889;29;20565;-74
2022/09/20 04:32:40;;;;;;;0.20;0.20;;;11.20;88.10;;;;;;4876552;29;20051;-73
2022/09/20 04:38:21;;;;;;;0.10;0.10;;;11.10;88.20;;;;;;4866108;29;20048;-73
2022/09/20 04:41:20;;;;;;;0.10;0.10;;;11.10;88.20;;;;;;4876821;29;20037;-73
2022/09/20 04:44:11;;;;;;;0.20;0.20;;;11.00;88.30;;;;;;4863753;29;20052;-73
2022/09/20 04:47:10;;;;;;;0.73;0.20;;;11.00;88.40;;;;;;4876211;29;20041;-73
2022/09/20 04:50:01;;;;;;;0.38;0.20;;;10.90;88.30;;;;;;4876615;29;20041;-73
2022/09/20 04:53:01;;;;;;;0.43;0.10;;;10.90;88.40;;;;;;4860657;29;20142;-73
2022/09/20 04:55:51;;;;;;;0.50;0.25;;;10.90;88.40;;;;;;4876182;29;20101;-74
2022/09/20 04:58:36;;;;;;;0.20;0.20;;;10.90;88.50;;;;;;4874305;29;20538;-74
2022/09/20 05:01:41;;;;;;;1.20;0.20;;;10.90;88.50;;;;;;4876967;29;20045;-73
2022/09/20 05:04:41;;;;;;;0.20;0.20;;;10.90;88.60;;;;;;4873462;29;20037;-73
2022/09/20 05:07:30;;;;;;;0.65;0.10;;;10.90;88.60;;;;;;4877014;29;20040;-73
2022/09/20 05:10:23;;;;;;;0.17;0.17;;;10.90;88.60;;;;;;4870309;29;20060;-74
2022/09/20 05:13:13;;;;;;;0.43;0.20;;;10.80;88.50;;;;;;4870866;29;20041;-75
2022/09/20 05:16:11;;;;;;;0.20;0.20;;;10.90;88.60;;;;;;4878888;29;20078;-75
2022/09/20 05:19:11;;;;;;;0.35;0.20;;;10.90;88.50;;;;;;4861193;29;20105;-74
2022/09/20 05:22:01;;;;;;;0.20;0.13;;;11.00;88.50;;;;;;4876628;29;20049;-74
2022/09/20 05:25:06;;;;;;;0.10;0.10;;;10.90;88.40;;;;;;4877944;29;20289;-74
2022/09/20 05:27:42;;;;;;;0.13;0.13;;;11.00;88.40;;;;;;4874642;29;20566;-75
2022/09/20 05:30:28;;;;;;;0.10;0.10;;;10.90;88.30;;;;;;4877937;29;20097;-75
2022/09/20 05:33:09;;;;;;;0.20;0.20;;;11.00;88.40;;;;;;4877815;29;20401;-75
2022/09/20 05:35:44;;;;;;;0.20;0.20;;;11.00;88.40;;;;;;4876813;29;20055;-74
2022/09/20 05:38:35;;;;;;;0.30;0.30;;;11.00;88.30;;;;;;4877088;29;20124;-75
2022/09/20 05:41:32;;;;;;;0.35;0.30;;;11.00;88.40;;;;;;4877880;29;20087;-75
2022/09/20 05:44:25;;;;;;;0.17;0.17;;;11.00;88.40;;;;;;4879497;29;20037;-75
2022/09/20 05:47:28;;;;;;;0.40;0.20;;;11.00;88.40;;;;;;4880917;29;20127;-75
2022/09/20 05:50:23;;;;;;;0.30;0.30;;;11.00;88.40;;;;;;4868271;29;20049;-75
2022/09/20 05:53:23;;;;;;;0.13;0.13;;;11.00;88.40;;;;;;4879653;29;20149;-75
2022/09/20 05:56:10;;;;;;;0.20;0.20;;;10.90;88.30;;;;;;4881327;29;20531;-76
2022/09/20 05:58:50;;;;;;;0.30;0.10;;;10.90;88.40;;;;;;4880588;29;20530;-76
2022/09/20 06:01:31;;;;;;;0.85;0.20;;;10.90;88.40;;;;;;4879001;29;20053;-76
2022/09/20 06:04:18;;;;;;;0.20;0.20;;;10.90;88.50;;;;;;4878717;29;20055;-76
2022/09/20 06:06:56;;;;;;;0.30;0.30;;;10.90;88.60;;;;;;4880218;29;20045;-76
2022/09/20 06:09:42;;;;;;;0.52;0.30;;;10.90;88.60;;;;;;4880722;29;20508;-76
2022/09/20 06:12:49;;;;;;;0.73;0.20;;;10.90;88.60;;;;;;4880407;29;20048;-74
2022/09/20 06:15:28;;;;;;;0.52;0.20;;;10.90;88.60;;;;;;4876636;29;20045;-75
2022/09/20 06:18:25;;;;;;;0.52;0.30;;;11.00;88.50;;;;;;4864081;29;20045;-75
2022/09/20 06:21:16;;;;;;;0.50;0.30;;;11.00;88.50;;;;;;4879298;29;20408;-75
2022/09/20 06:23:43;;;;;;;0.30;0.30;;;11.00;88.40;;;;;;4880109;29;20051;-75
2022/09/20 06:26:16;;;;;;;0.98;0.30;;;11.00;88.40;;;;;;4862874;29;20088;-75
2022/09/20 06:28:48;;;;;;;0.20;0.20;;;11.00;88.40;;;;;;4880210;29;20044;-75
2022/09/20 06:31:15;;;;;;;0.28;0.28;;;11.00;88.50;;;;;;4876949;29;20072;-75
2022/09/20 06:33:49;;;;;;;0.32;0.20;;;11.00;88.50;;;;;;4878970;29;20049;-75
2022/09/20 06:42:22;;;;;;;0.43;0.20;;;11.30;88.30;;;;;;4879144;29;20553;-75
2022/09/20 06:44:48;;;;;;;0.28;0.28;;;11.30;88.00;;;;;;4878891;29;20068;-75
2022/09/20 06:47:14;;;;;;;0.68;0.40;;;11.40;87.90;;;;;;4879279;29;20045;-75
2022/09/20 06:49:41;;;;;;;0.57;0.30;;;11.40;87.90;;;;;;4876012;29;20480;-75
2022/09/20 06:52:13;;;;;;;0.25;0.25;;;11.50;87.90;;;;;;4878313;29;20489;-75
2022/09/20 06:54:44;;;;;;;0.28;0.20;;;11.60;87.90;;;;;;4879406;29;20045;-75
2022/09/20 06:57:15;;;;;;;0.20;0.20;;;11.60;87.70;;;;;;4879569;29;20037;-75
2022/09/20 06:59:41;;;;;;;0.30;0.30;;;11.60;87.60;;;;;;4880096;29;20841;-75
2022/09/20 07:02:12;;;;;;;0.32;0.32;;;11.70;87.60;;;;;;4879733;29;20050;-77
2022/09/20 07:04:38;;;;;;;0.68;0.38;;;11.80;87.60;;;;;;4877224;29;20431;-76
2022/09/20 07:07:20;;;;;;;0.35;0.30;;;11.80;87.50;;;;;;4875578;29;20049;-76
2022/09/20 07:10:18;;;;;;;;;;;11.70;87.40;;;;;;4878464;29;20049;-78
2022/09/20 07:13:24;;;;;;;0.65;0.30;;;11.80;87.40;;;;;;4872198;29;19922;-78
2022/09/20 07:16:01;;;;;;;0.82;0.40;;;11.90;87.10;;;;;;4836373;29;20396;-76
2022/09/20 07:19:00;;;;;;;1.48;0.47;;;12.10;87.10;;;;;;4830525;29;20057;-76
2022/09/20 07:21:58;;;;;;;0.70;0.40;;;12.00;87.10;;;;;;4820115;29;20126;-77
2022/09/20 07:24:31;;;;;;;0.32;0.30;;;12.00;87.10;;;;;;4809194;29;20047;-76
2022/09/20 07:27:06;;;;;;;0.47;0.30;;;12.00;87.20;;;;;;4806639;29;20038;-77
2022/09/20 07:29:33;;;;;;;0.75;0.20;;;12.00;87.30;;;;;;4785312;29;20056;-76
2022/09/20 07:32:02;;;;;;;0.22;0.20;;;12.00;87.40;;;;;;4770972;29;20446;-75
2022/09/20 07:34:40;;;;;;;0.47;0.20;;;12.10;87.50;;;;;;4770878;29;20058;-77
2022/09/20 07:37:06;;;;;;;0.20;0.20;;;12.10;87.50;;;;;;4712850;30;20059;-76
2022/09/20 07:42:55;;;;;;;0.20;0.20;;;12.20;87.60;;;;;;4720896;30;20059;-77
2022/09/20 07:45:40;;;;;;;0.73;0.40;;;12.20;87.50;;;;;;4727303;30;20188;-77
2022/09/20 07:49:13;;;;;;;0.35;0.20;;;12.20;87.50;;;;;;4731462;30;20060;-77
2022/09/20 07:51:45;;;;;;;0.50;0.15;;;12.30;87.50;;;;;;4732854;30;20554;-78
2022/09/20 07:57:40;;;;;;;0.13;0.13;;;12.40;87.30;;;;;;4660540;30;20141;-77
2022/09/20 08:04:23;;;;;;;0.50;0.30;;;12.50;87.20;;;;;;4661168;30;20061;-77
2022/09/20 08:07:09;;;;;;;0.47;0.20;;;12.60;87.10;;;;;;4657849;30;20057;-76
2022/09/20 08:10:25;;;;;;;0.10;0.10;;;12.60;87.00;;;;;;4677669;30;20058;-77
2022/09/20 08:30:13;;;;;;;0.20;0.20;;;13.00;86.80;;;;;;4675427;30;20061;-77
2022/09/20 08:58:39;;;;;;;0.20;0.20;;;14.00;84.60;;;;;;4765803;30;20247;-77
2022/09/20 09:09:13;;;;;;;0.20;0.20;;;14.10;84.60;;;;;;4695807;30;21014;-78
2022/09/20 09:12:14;;;;;;;0.20;0.20;;;14.20;84.50;;;;;;4689334;30;20100;-77
2022/09/20 09:15:52;;;;;;;0.43;0.20;;;14.20;84.30;;;;;;4692846;30;20144;-77
2022/09/20 09:33:32;;;;;;;0.25;0.25;;;14.10;84.40;;;;;;4562850;31;20453;-76
2022/09/20 09:36:15;;;;;;;0.47;0.20;;;14.10;84.30;;;;;;4562568;31;20053;-77
2022/09/20 09:38:44;;;;;;;0.63;0.20;;;14.10;84.40;;;;;;4623278;30;20133;-78
2022/09/20 09:41:24;;;;;;;2.13;0.30;;;14.10;84.20;;;;;;4618832;30;20041;-77
2022/09/20 09:44:08;;;;;;;0.52;0.20;;;14.10;84.10;;;;;;4725829;30;20128;-75
2022/09/20 09:46:38;;;;;;;0.20;0.20;;;14.20;84.20;;;;;;4759704;30;20072;-76
2022/09/20 09:49:11;;;;;;;0.15;0.15;;;14.20;84.10;;;;;;4752805;30;20044;-76
2022/09/20 09:51:41;;;;;;;0.25;0.20;;;14.40;84.00;;;;;;4744494;30;20521;-77
2022/09/20 09:54:16;;;;;;;0.43;0.22;;;14.40;83.90;;;;;;4764874;30;20039;-78
2022/09/20 09:57:09;;;;;;;0.20;0.20;;;14.50;83.80;;;;;;4784117;29;20165;-77
2022/09/20 10:00:05;;;;;;;0.10;0.10;;;14.50;83.70;;;;;;4856639;29;20050;-77
2022/09/20 10:28:20;;;;;;;0.20;0.20;;;14.70;83.40;;;;;;4710701;30;20525;-76
2022/09/20 10:31:22;;;;;;;1.00;0.28;;;14.80;83.30;;;;;;4713501;30;20061;-76
2022/09/20 10:34:43;;;;;;;0.22;0.15;;;15.10;83.10;;;;;;4712821;30;20079;-77
2022/09/20 10:38:15;;;;;;;1.00;0.17;;;15.10;82.90;;;;;;4727876;30;20048;-77
2022/09/20 10:44:45;;;;;;;0.47;0.20;;;15.30;82.20;;;;;;4787538;30;20130;-76
2022/09/20 10:47:25;;;;;;;0.17;0.10;;;15.30;82.00;;;;;;4750561;30;20048;-78
2022/09/20 10:50:29;;;;;;;0.47;0.17;;;15.40;82.00;;;;;;4734274;30;20056;-77
2022/09/20 11:07:52;;;;;;;0.20;0.20;;;15.40;82.50;;;;;;4740382;30;20474;-73
2022/09/20 11:17:11;;;;;;;0.20;0.20;;;15.60;81.70;;;;;;4794021;29;20085;-75
2022/09/20 11:19:59;;;;;;;0.93;0.30;;;15.70;81.60;;;;;;4787210;29;20196;-77
2022/09/20 11:23:00;;;;;;;0.70;0.40;;;15.90;81.20;;;;;;4767704;30;20047;-75
2022/09/20 11:35:49;;;;;;;0.38;0.20;;;16.00;80.70;;;;;;4714915;30;20056;-75
2022/09/20 11:39:35;;;;;;;0.20;0.20;;;16.10;81.20;;;;;;4736166;30;20083;-76
2022/09/20 11:45:41;;;;;;;0.30;0.20;;;16.30;80.10;;;;;;4674433;30;20133;-78
2022/09/20 12:20:44;;;;;;;0.38;0.20;;;16.50;79.60;;;;;;4712067;30;20119;-75
2022/09/20 12:33:19;;;;;;;0.30;0.30;;;16.50;79.20;;;;;;4729733;30;20051;-75
2022/09/20 12:35:58;;;;;;;0.43;0.20;;;16.70;78.70;;;;;;4717426;30;20044;-74
2022/09/20 12:38:27;;;;;;;0.40;0.28;;;16.80;78.50;;;;;;4731725;30;20101;-75
2022/09/20 12:41:07;;;;;;;2.97;0.30;;;17.00;78.10;;;;;;4703006;30;20127;-75
2022/09/20 12:43:35;;;;;;;0.20;0.20;;;17.00;77.50;;;;;;4731689;30;20501;-75
2022/09/20 13:00:59;;;;;;;0.22;0.22;;;16.60;77.90;;;;;;4747970;30;20198;-76
2022/09/20 13:22:24;;;;;;;0.52;0.20;;;16.90;77.50;;;;;;4675205;30;20462;-74
2022/09/20 13:25:05;;;;;;;1.08;0.20;;;16.90;77.20;;;;;;4671030;30;20502;-75
2022/09/20 13:27:41;;;;;;;0.35;0.25;;;16.90;77.20;;;;;;4693665;30;20049;-74
2022/09/20 13:31:58;;;;;;;0.30;0.10;;;16.80;77.00;;;;;;4744645;30;20057;-75
2022/09/20 13:35:00;;;;;;;0.52;0.20;;;16.70;76.90;;;;;;4718565;30;20132;-75
2022/09/20 13:38:21;;;;;;;0.45;0.25;;;16.70;77.10;;;;;;4747155;30;20527;-76
2022/09/20 13:54:35;;;;;;;0.22;0.20;;;16.10;78.00;;;;;;4720090;30;20128;-75
2022/09/20 13:57:05;;;;;;;0.20;0.20;;;16.10;77.90;;;;;;4765941;30;20511;-75
2022/09/20 13:59:39;;;;;;;0.30;0.17;;;16.10;77.80;;;;;;4765724;30;20861;-75
2022/09/20 14:02:20;;;;;;;1.85;0.20;;;16.30;77.90;;;;;;4749578;30;20491;-75
2022/09/20 14:08:36;;;;;;;;;;;16.30;77.60;;;;;;4731617;30;20562;-76
2022/09/20 14:11:12;;;;;;;0.20;0.20;;;16.30;77.40;;;;;;4750391;30;19957;-77
2022/09/20 14:46:43;;;;;;;0.10;0.10;;;16.50;76.70;;;;;;4661141;30;20418;-77
2022/09/20 14:53:21;;;;;;;1.75;0.30;;;16.80;76.00;;;;;;4680198;30;20534;-76
2022/09/20 14:55:36;;;;;;;1.20;0.30;;;16.90;75.40;;;;;;4644102;30;20142;-76
2022/09/20 15:09:53;;;;;;;0.15;0.13;;;17.00;74.40;;;;;;4661829;30;20510;-76
2022/09/20 15:13:29;;;;;;;0.25;0.20;;;17.10;74.40;;;;;;4659878;30;20531;-77
2022/09/20 15:15:59;;;;;;;0.10;0.10;;;17.10;74.30;;;;;;4663221;30;20558;-77
2022/09/20 15:19:15;;;;;;;0.30;0.20;;;17.00;74.40;;;;;;4683266;30;20048;-77
2022/09/20 15:21:50;;;;;;;0.60;0.22;;;16.80;74.70;;;;;;4733406;30;20044;-76
2022/09/20 15:24:19;;;;;;;0.10;0.10;;;16.70;75.00;;;;;;4723533;30;20048;-76
2022/09/20 15:26:49;;;;;;;0.28;0.10;;;16.70;75.10;;;;;;4838467;29;20044;-75
2022/09/20 15:32:59;;;;;;;0.10;0.10;;;16.60;75.30;;;;;;4867175;29;20063;-75
2022/09/20 15:35:38;;;;;;;0.70;0.20;;;16.50;75.50;;;;;;4876905;29;20056;-76
2022/09/20 15:41:52;;;;;;;0.60;0.20;;;16.40;75.60;;;;;;4819124;29;20125;-75
2022/09/20 15:44:18;;;;;;;0.38;0.20;;;16.30;75.70;;;;;;4806629;29;20086;-75
2022/09/20 15:46:44;;;;;;;0.65;0.20;;;16.20;75.60;;;;;;4791397;29;20050;-73
2022/09/20 15:49:19;;;;;;;1.38;0.20;;;16.30;75.50;;;;;;4791303;29;20038;-75
2022/09/20 15:51:45;;;;;;;1.17;0.20;;;16.20;75.40;;;;;;4807117;29;20046;-72
2022/09/20 15:54:13;;;;;;;1.40;0.30;;;16.20;75.20;;;;;;4821760;29;20046;-74
2022/09/20 15:56:41;;;;;;;0.20;0.20;;;16.20;75.20;;;;;;4821935;29;20042;-76
2022/09/20 15:59:12;;;;;;;0.60;0.30;;;16.20;75.10;;;;;;4821808;29;20047;-75
2022/09/20 16:01:40;;;;;;;0.80;0.30;;;16.20;75.00;;;;;;4806665;29;20042;-75
2022/09/20 16:04:09;;;;;;;0.70;0.30;;;16.20;74.90;;;;;;4821393;29;20046;-74
2022/09/20 16:06:35;;;;;;;0.20;0.20;;;16.10;74.80;;;;;;4821696;29;20137;-74
2022/09/20 16:09:03;;;;;;;0.20;0.20;;;16.20;74.90;;;;;;4830372;29;20042;-72
2022/09/20 16:11:29;;;;;;;0.38;0.20;;;16.00;74.70;;;;;;4844612;29;20045;-73
2022/09/20 16:13:58;;;;;;;0.10;0.10;;;16.10;74.80;;;;;;4878566;29;20039;-72
2022/09/20 16:16:25;;;;;;;0.50;0.28;;;16.00;74.60;;;;;;4878128;29;20044;-72
2022/09/20 16:21:30;;;;;;;0.20;0.20;;;16.00;74.50;;;;;;4877457;29;20053;-73
2022/09/20 16:23:57;;;;;;;1.08;0.20;;;16.10;74.40;;;;;;4878563;29;20053;-72
2022/09/20 16:26:26;;;;;;;0.52;0.20;;;16.10;74.20;;;;;;4876864;29;20048;-73
2022/09/20 16:28:54;;;;;;;0.20;0.20;;;16.10;74.00;;;;;;4878359;29;20049;-74
2022/09/20 16:31:46;;;;;;;0.25;0.25;;;16.10;73.80;;;;;;4877056;29;20132;-73
2022/09/20 16:34:18;;;;;;;0.20;0.20;;;16.10;73.60;;;;;;4877425;29;20484;-73
2022/09/20 16:36:45;;;;;;;0.10;0.10;;;16.00;73.50;;;;;;4877177;29;20060;-73
2022/09/20 16:39:12;;;;;;;0.10;0.10;;;16.10;73.60;;;;;;4878403;29;20044;-76
2022/09/20 16:41:39;;;;;;;1.13;0.10;;;16.10;73.80;;;;;;4878765;29;20045;-76
2022/09/20 16:44:05;;;;;;;0.20;0.20;;;16.00;73.70;;;;;;4878002;29;20052;-73
2022/09/20 16:46:35;;;;;;;0.10;0.10;;;16.00;73.70;;;;;;4878194;29;20037;-74
2022/09/20 16:49:00;;;;;;;0.05;0.05;;;16.00;73.80;;;;;;4878156;29;20056;-76
2022/09/20 16:51:33;;;;;;;0.28;0.10;;;16.00;73.80;;;;;;4878380;29;20392;-75
2022/09/20 16:54:02;;;;;;;0.10;0.10;;;15.90;73.80;;;;;;4876709;29;20065;-75
2022/09/20 16:56:29;;;;;;;0.20;0.10;;;15.80;73.90;;;;;;4877992;29;20040;-74
2022/09/20 16:58:55;;;;;;;0.20;0.20;;;15.80;74.10;;;;;;4878406;29;20049;-75
2022/09/20 17:01:21;;;;;;;0.30;0.10;;;15.70;74.20;;;;;;4877980;29;20041;-74
2022/09/20 17:03:48;;;;;;;0.15;0.10;;;15.60;74.30;;;;;;4878148;29;20551;-74
2022/09/20 17:06:15;;;;;;;0.25;0.10;;;15.50;74.40;;;;;;4860889;29;20064;-74
2022/09/20 17:08:43;;;;;;;0.10;0.10;;;15.50;74.50;;;;;;4878326;29;20053;-75
2022/09/20 17:11:13;;;;;;;0.10;0.10;;;15.50;74.60;;;;;;4877081;29;20041;-74
2022/09/20 17:13:41;;;;;;;0.10;0.10;;;15.30;74.60;;;;;;4878247;29;20037;-74
2022/09/20 17:16:11;;;;;;;0.10;0.10;;;15.30;74.70;;;;;;4876207;29;20037;-74
2022/09/20 17:18:44;;;;;;;0.22;0.10;;;15.30;74.80;;;;;;4859940;29;20041;-74
2022/09/20 17:21:13;;;;;;;0.10;0.10;;;15.20;74.80;;;;;;4878315;29;20045;-74
2022/09/20 17:23:41;;;;;;;0.10;0.10;;;15.10;74.90;;;;;;4877874;29;20132;-74
2022/09/20 17:26:14;;;;;;;0.93;0.25;;;15.10;75.00;;;;;;4875845;29;20053;-74
2022/09/20 17:28:42;;;;;;;0.70;0.10;;;15.00;75.00;;;;;;4859963;29;20033;-74
2022/09/20 17:31:12;;;;;;;0.80;0.20;;;14.90;75.20;;;;;;4876127;29;20041;-75
2022/09/20 17:33:39;;;;;;;0.20;0.10;;;14.90;75.40;;;;;;4877548;29;20041;-74
2022/09/20 17:36:06;;;;;;;0.00;0.00;;;14.80;75.50;;;;;;4877681;29;20033;-74
2022/09/20 17:38:33;;;;;;;0.10;0.10;;;14.70;75.50;;;;;;4878535;29;20037;-74
2022/09/20 17:41:03;;;;;;;0.10;0.10;;;14.70;75.50;;;;;;4881329;29;20049;-74
2022/09/20 17:43:30;;;;;;;0.10;0.10;;;14.60;75.60;;;;;;4879713;29;20049;-74
2022/09/20 17:46:05;;;;;;;0.10;0.10;;;14.50;75.60;;;;;;4880966;29;20044;-74
2022/09/20 17:48:32;;;;;;;0.10;0.10;;;14.50;75.70;;;;;;4879537;29;20037;-74
2022/09/20 17:51:00;;;;;;;0.52;0.20;;;14.40;75.80;;;;;;4880757;29;20041;-74
2022/09/20 17:53:26;;;;;;;0.70;0.15;;;14.30;75.80;;;;;;4879294;29;20113;-74
2022/09/20 17:55:55;;;;;;;0.60;0.10;;;14.30;75.90;;;;;;4879346;29;20070;-74
2022/09/20 17:58:21;;;;;;;0.10;0.10;;;14.20;75.80;;;;;;4876654;29;20128;-74
2022/09/20 18:00:47;;;;;;;0.10;0.10;;;14.20;76.00;;;;;;4881067;29;20041;-75
2022/09/20 18:03:13;;;;;;;0.10;0.10;;;14.10;76.10;;;;;;4880920;29;20037;-74
2022/09/20 18:05:39;;;;;;;0.10;0.10;;;14.00;76.20;;;;;;4881032;29;20049;-74
2022/09/20 18:08:05;;;;;;;0.10;0.10;;;13.90;76.40;;;;;;4880717;29;20373;-74
2022/09/20 18:10:31;;;;;;;0.22;0.10;;;13.80;76.40;;;;;;4880359;29;20435;-74
2022/09/20 18:12:57;;;;;;;0.30;0.20;;;13.80;76.50;;;;;;4878634;29;20041;-74
2022/09/20 18:15:22;;;;;;;0.20;0.20;;;13.70;76.60;;;;;;4879493;29;20388;-74
2022/09/20 18:17:48;;;;;;;0.20;0.20;;;13.70;76.70;;;;;;4878931;29;20484;-74
2022/09/20 18:20:14;;;;;;;0.10;0.10;;;13.70;76.70;;;;;;4878184;29;20559;-73
2022/09/20 18:22:40;;;;;;;0.20;0.20;;;13.60;76.70;;;;;;4878028;29;20040;-74
2022/09/20 18:25:07;;;;;;;0.35;0.20;;;13.50;76.70;;;;;;4880083;29;20538;-73
2022/09/20 18:27:32;;;;;;;0.20;0.20;;;13.40;76.80;;;;;;4880561;29;20131;-73
2022/09/20 18:29:59;;;;;;;0.30;0.20;;;13.40;77.00;;;;;;4880017;29;20613;-75
2022/09/20 18:32:28;;;;;;;0.55;0.35;;;13.30;77.10;;;;;;4879078;29;20088;-74
2022/09/20 18:34:54;;;;;;;0.25;0.20;;;13.20;77.20;;;;;;4878580;29;20048;-74
2022/09/20 18:37:19;;;;;;;0.40;0.20;;;13.10;77.30;;;;;;4879920;29;20045;-74
2022/09/20 18:39:45;;;;;;;0.15;0.15;;;13.10;77.40;;;;;;4878558;29;20041;-74
2022/09/20 18:42:11;;;;;;;0.30;0.10;;;13.00;77.40;;;;;;4880208;29;20048;-74
2022/09/20 18:44:37;;;;;;;0.28;0.13;;;13.00;77.40;;;;;;4878514;29;20055;-74
2022/09/20 18:47:04;;;;;;;0.10;0.10;;;12.90;77.50;;;;;;4880403;29;20041;-74
2022/09/20 18:49:31;;;;;;;0.50;0.30;;;12.90;77.60;;;;;;4876052;29;20033;-73
2022/09/20 18:51:57;;;;;;;0.40;0.22;;;12.80;77.60;;;;;;4880044;29;20041;-73
2022/09/20 18:54:23;;;;;;;0.10;0.10;;;12.80;77.70;;;;;;4880069;29;20037;-73